createdAt,value
2022-11-09T00:00:23.627Z,15.00
2022-11-09T00:05:08.267Z,14.30
2022-11-09T00:09:53.157Z,15.87
2022-11-09T00:14:36.829Z,15.17
2022-11-09T00:19:20.653Z,14.23
2022-11-09T00:24:04.070Z,16.20
2022-11-09T00:28:49.312Z,14.33
2022-11-09T00:33:33.342Z,11.17
2022-11-09T00:38:16.709Z,15.80
2022-11-09T00:43:00.138Z,13.80
2022-11-09T00:47:46.230Z,13.70
2022-11-09T00:52:29.833Z,13.77
2022-11-09T00:57:14.273Z,17.07
2022-11-09T01:01:57.782Z,11.73
2022-11-09T01:06:42.717Z,11.07
2022-11-09T01:11:26.178Z,12.00
2022-11-09T01:16:12.161Z,13.30
2022-11-09T01:20:55.620Z,10.67
2022-11-09T01:25:40.731Z,11.87
2022-11-09T01:30:24.179Z,15.90
2022-11-09T01:35:08.262Z,12.47
2022-11-09T01:39:51.670Z,13.47
2022-11-09T01:44:39.970Z,10.67
2022-11-09T01:49:31.869Z,12.30
2022-11-09T01:54:19.374Z,10.87
2022-11-09T01:59:05.460Z,10.83
2022-11-09T02:03:55.634Z,9.67
2022-11-09T02:08:40.389Z,6.43
2022-11-09T02:13:26.352Z,1.67
2022-11-09T02:18:10.317Z,3.40
2022-11-09T02:22:55.353Z,1.30
2022-11-09T02:27:39.631Z,1.60
2022-11-09T02:32:25.985Z,0.90
2022-11-09T02:43:14.995Z,2.67
2022-11-09T02:47:58.603Z,5.50
2022-11-09T02:52:42.023Z,6.50
2022-11-09T02:57:25.597Z,5.63
2022-11-09T03:02:10.941Z,1.87
2022-11-09T03:06:54.580Z,0.57
2022-11-09T03:11:38.691Z,0.17
2022-11-09T03:16:22.061Z,0.20
2022-11-09T03:21:07.804Z,1.70
2022-11-09T03:25:51.367Z,1.70
2022-11-09T03:30:35.351Z,2.93
2022-11-09T03:35:18.843Z,4.13
2022-11-09T03:40:03.738Z,3.20
2022-11-09T03:44:47.137Z,3.73
2022-11-09T03:49:30.765Z,2.30
2022-11-09T03:54:14.239Z,3.20
2022-11-09T03:58:59.108Z,2.73
2022-11-09T04:03:42.557Z,1.83
2022-11-09T04:08:25.961Z,1.83
2022-11-09T04:13:09.618Z,2.90
2022-11-09T04:17:58.900Z,2.07
2022-11-09T04:22:42.336Z,1.53
2022-11-09T04:27:25.822Z,2.30
2022-11-09T04:32:09.392Z,4.57
2022-11-09T04:36:54.347Z,1.93
2022-11-09T04:41:37.955Z,1.90
2022-11-09T04:46:21.512Z,2.73
2022-11-09T04:51:06.569Z,4.67
2022-11-09T04:55:52.756Z,3.17
2022-11-09T05:00:36.844Z,2.40
2022-11-09T05:05:20.268Z,3.10
2022-11-09T05:10:03.793Z,3.03
2022-11-09T05:14:49.024Z,5.90
2022-11-09T05:19:32.538Z,7.80
2022-11-09T05:24:16.146Z,7.83
2022-11-09T05:29:00.139Z,8.67
2022-11-09T05:33:45.076Z,7.20
2022-11-09T05:38:28.578Z,5.93
2022-11-09T05:43:12.029Z,6.77
2022-11-09T05:47:55.542Z,9.50
2022-11-09T05:52:40.664Z,4.27
2022-11-09T05:57:24.458Z,5.17
2022-11-09T06:02:07.993Z,6.03
2022-11-09T06:06:51.653Z,3.57
2022-11-09T06:11:36.600Z,5.43
2022-11-09T06:16:20.048Z,4.80
2022-11-09T06:21:05.709Z,7.10
2022-11-09T06:25:51.191Z,13.93
2022-11-09T06:30:36.039Z,15.30
2022-11-09T06:35:19.518Z,11.43
2022-11-09T06:40:03.195Z,14.73
2022-11-09T06:44:46.640Z,14.63
2022-11-09T06:49:31.531Z,11.17
2022-11-09T06:54:15.025Z,12.97
2022-11-09T06:58:58.630Z,10.57
2022-11-09T07:03:42.172Z,9.83
2022-11-09T07:08:27.069Z,10.80
2022-11-09T07:13:11.394Z,15.33
2022-11-09T07:17:58.232Z,10.90
2022-11-09T07:22:42.212Z,12.13
2022-11-09T07:27:28.302Z,13.53
2022-11-09T07:32:11.983Z,11.23
2022-11-09T07:36:55.541Z,14.97
2022-11-09T07:41:38.998Z,16.10
2022-11-09T07:46:23.794Z,11.77
2022-11-09T07:51:07.538Z,14.10
2022-11-09T07:55:59.041Z,16.47
2022-11-09T08:00:44.089Z,7.57
2022-11-09T08:05:30.274Z,9.67
2022-11-09T08:10:13.846Z,10.33
2022-11-09T08:14:57.331Z,7.00
2022-11-09T08:19:40.889Z,9.50
2022-11-09T08:24:26.373Z,11.17
2022-11-09T08:29:09.816Z,8.67
2022-11-09T08:33:54.007Z,9.33
2022-11-09T08:38:37.595Z,10.27
2022-11-09T08:43:22.483Z,10.50
2022-11-09T08:48:06.953Z,7.03
2022-11-09T08:52:50.535Z,10.50
2022-11-09T08:57:34.921Z,8.20
2022-11-09T09:02:20.863Z,5.97
2022-11-09T09:07:04.418Z,4.90
2022-11-09T09:11:47.962Z,8.77
2022-11-09T09:16:31.934Z,7.13
2022-11-09T09:21:17.312Z,6.77
2022-11-09T09:26:00.842Z,7.70
2022-11-09T09:30:44.296Z,9.73
2022-11-09T09:35:28.326Z,6.27
2022-11-09T09:40:25.265Z,9.80
2022-11-09T09:45:15.034Z,8.17
2022-11-09T09:50:04.240Z,9.43
2022-11-09T09:54:55.328Z,8.70
2022-11-09T09:59:43.780Z,8.60
2022-11-09T10:04:36.115Z,12.90
2022-11-09T10:09:31.972Z,13.57
2022-11-09T10:14:30.180Z,19.67
2022-11-09T10:19:40.687Z,7.57
2022-11-09T10:24:33.602Z,10.10
2022-11-09T10:29:24.072Z,7.40
2022-11-09T10:34:18.197Z,8.90
2022-11-09T10:39:03.594Z,11.83
2022-11-09T10:43:47.154Z,7.33
2022-11-09T10:48:36.048Z,14.57
2022-11-09T10:53:21.648Z,7.23
2022-11-09T10:58:31.594Z,9.23
2022-11-09T11:03:19.215Z,10.77
2022-11-09T11:08:24.356Z,12.37
2022-11-09T11:13:24.607Z,8.80
2022-11-09T11:18:17.747Z,12.90
2022-11-09T11:23:13.293Z,9.13
2022-11-09T11:28:05.393Z,15.43
2022-11-09T11:32:51.105Z,12.07
2022-11-09T11:37:48.354Z,13.17
2022-11-09T11:42:49.074Z,10.50
2022-11-09T11:47:42.389Z,11.37
2022-11-09T11:52:35.077Z,14.33
2022-11-09T11:57:35.409Z,9.27
2022-11-09T12:02:48.558Z,14.10
2022-11-09T12:07:39.247Z,12.77
2022-11-09T12:12:35.778Z,12.23
2022-11-09T12:17:32.075Z,15.77
2022-11-09T12:22:32.825Z,16.80
2022-11-09T12:27:41.626Z,14.77
2022-11-09T12:32:37.793Z,10.70
2022-11-09T12:37:25.647Z,12.17
2022-11-09T12:42:16.555Z,55.83
2022-11-09T12:47:07.439Z,79.40
2022-11-09T12:51:54.307Z,40.63
2022-11-09T12:56:48.351Z,29.90
2022-11-09T13:01:52.517Z,14.83
2022-11-09T13:06:37.564Z,10.90
2022-11-09T13:11:23.899Z,8.77
2022-11-09T13:16:36.263Z,10.27
2022-11-09T13:21:41.060Z,15.33
2022-11-09T13:26:46.625Z,9.43
2022-11-09T13:32:16.507Z,8.13
2022-11-09T13:37:33.456Z,11.87
2022-11-09T13:42:34.017Z,12.23
2022-11-09T13:47:26.743Z,8.33
2022-11-09T13:52:44.012Z,9.87
2022-11-09T13:57:29.649Z,8.37
2022-11-09T14:02:20.216Z,13.80
2022-11-09T14:07:06.793Z,12.57
2022-11-09T14:12:03.544Z,8.97
2022-11-09T14:16:58.403Z,9.60
2022-11-09T14:21:46.978Z,10.40
2022-11-09T14:26:31.329Z,14.70
2022-11-09T14:31:26.529Z,13.17
2022-11-09T14:36:15.315Z,10.23
2022-11-09T14:40:59.937Z,7.47
2022-11-09T14:45:50.401Z,8.67
2022-11-09T14:50:38.476Z,8.67
2022-11-09T14:55:25.818Z,9.50
2022-11-09T15:00:27.967Z,13.67
2022-11-09T15:05:34.203Z,188.93
2022-11-09T15:10:24.381Z,10.87
2022-11-09T15:15:09.474Z,11.97
2022-11-09T15:19:55.575Z,10.77
2022-11-09T15:24:49.668Z,11.17
2022-11-09T15:29:42.731Z,15.03
2022-11-09T15:34:28.960Z,13.00
2022-11-09T15:39:17.825Z,14.07
2022-11-09T15:44:01.554Z,13.43
2022-11-09T15:48:46.766Z,11.20
2022-11-09T15:53:30.472Z,11.43
2022-11-09T15:58:16.505Z,11.63
2022-11-09T16:03:00.176Z,13.33
2022-11-09T16:07:53.445Z,13.03
2022-11-09T16:12:42.529Z,12.70
2022-11-09T16:17:31.586Z,15.30
2022-11-09T16:22:15.792Z,16.83
2022-11-09T16:27:02.086Z,14.27
2022-11-09T16:31:51.953Z,15.13
2022-11-09T16:36:40.588Z,14.33
2022-11-09T16:41:27.447Z,20.53
2022-11-09T16:46:19.741Z,19.33
2022-11-09T16:51:04.050Z,19.43
2022-11-09T16:55:48.388Z,21.43
2022-11-09T17:00:55.736Z,20.60
2022-11-09T17:05:37.923Z,22.50
2022-11-09T17:10:29.297Z,24.07
2022-11-09T17:15:13.982Z,21.80
2022-11-09T17:19:58.070Z,19.10
2022-11-09T17:24:43.777Z,22.10
2022-11-09T17:29:27.808Z,21.73
2022-11-09T17:34:12.873Z,25.43
2022-11-09T17:39:02.016Z,23.70
2022-11-09T17:43:47.986Z,19.83
2022-11-09T17:48:33.211Z,28.63
2022-11-09T17:53:20.646Z,23.03
2022-11-09T17:58:05.386Z,22.03
2022-11-09T18:02:52.379Z,27.20
2022-11-09T18:07:37.541Z,28.50
2022-11-09T18:12:22.017Z,30.07
2022-11-09T18:17:10.021Z,26.20
2022-11-09T18:21:56.610Z,34.40
2022-11-09T18:26:41.135Z,39.37
2022-11-09T18:31:30.011Z,42.00
2022-11-09T18:36:17.562Z,41.40
2022-11-09T18:41:07.739Z,38.47
2022-11-09T18:45:57.477Z,40.40
2022-11-09T18:50:45.509Z,41.00
2022-11-09T18:55:33.379Z,42.37
2022-11-09T19:00:21.264Z,37.63
2022-11-09T19:05:11.410Z,36.93
2022-11-09T19:09:56.920Z,30.57
2022-11-09T19:14:44.650Z,33.00
2022-11-09T19:19:39.126Z,33.63
2022-11-09T19:24:27.068Z,39.90
2022-11-09T19:29:12.663Z,36.23
2022-11-09T19:33:57.482Z,34.20
2022-11-09T19:38:45.395Z,35.10
2022-11-09T19:43:31.611Z,44.90
2022-11-09T19:48:16.379Z,38.67
2022-11-09T19:53:01.386Z,39.97
2022-11-09T19:57:47.197Z,45.70
2022-11-09T20:02:33.166Z,39.63
2022-11-09T20:07:18.126Z,44.13
2022-11-09T20:12:21.424Z,44.37
2022-11-09T20:17:07.595Z,46.20
2022-11-09T20:21:53.979Z,42.63
2022-11-09T20:26:38.529Z,47.07
2022-11-09T20:31:26.329Z,41.93
2022-11-09T20:36:13.101Z,42.20
2022-11-09T20:40:58.206Z,41.10
2022-11-09T20:45:43.286Z,43.10
2022-11-09T20:50:28.182Z,38.87
2022-11-09T20:55:14.741Z,35.70
2022-11-09T21:00:03.503Z,33.57
2022-11-09T21:04:51.889Z,38.37
2022-11-09T21:09:36.724Z,43.13
2022-11-09T21:14:22.553Z,41.77
2022-11-09T21:19:07.539Z,40.43
2022-11-09T21:24:10.462Z,44.80
2022-11-09T21:29:14.110Z,49.43
2022-11-09T21:33:59.593Z,52.37
2022-11-09T21:38:43.625Z,47.73
2022-11-09T21:43:27.329Z,45.50
2022-11-09T21:48:10.825Z,49.83
2022-11-09T21:52:55.768Z,49.10
2022-11-09T21:57:41.281Z,48.27
2022-11-09T22:02:25.054Z,43.53
2022-11-09T22:07:09.582Z,48.33
2022-11-09T22:12:12.268Z,50.93
2022-11-09T22:16:55.787Z,49.50
2022-11-09T22:21:42.444Z,43.47
2022-11-09T22:26:26.411Z,45.83
2022-11-09T22:31:12.084Z,45.77
2022-11-09T22:35:56.208Z,45.20
2022-11-09T22:40:39.734Z,48.17
2022-11-09T22:45:23.362Z,45.07
2022-11-09T22:50:08.976Z,48.33
2022-11-09T22:54:52.713Z,41.93
2022-11-09T22:59:36.301Z,38.97
2022-11-09T23:04:19.992Z,41.40
2022-11-09T23:09:05.609Z,41.33
2022-11-09T23:13:53.541Z,40.47
2022-11-09T23:18:56.059Z,39.23
2022-11-09T23:23:40.258Z,45.07
2022-11-09T23:28:25.407Z,48.70
2022-11-09T23:33:09.086Z,50.50
2022-11-09T23:37:59.807Z,43.73
2022-11-09T23:42:43.215Z,52.60
2022-11-09T23:47:28.059Z,47.27
2022-11-09T23:52:12.576Z,50.93
2022-11-09T23:56:56.244Z,53.37
